Time;durP1;ratioP1;P1;durP2;ratioP2;P2;SDS_P1;SDS_P2;PMS_P1;PMS_P2;Temp;Humidity;BMP_temperature;BMP_pressure;BME280_temperature;BME280_humidity;BME280_pressure;Samples;Min_cycle;Max_cycle;Signal;HPM_P1;HPM_P2
2023/05/30 00:01:46;;;;;;;12.07;2.80;;;;;;;10.75;100.00;102654.69;10348245;28;20046;-70
2023/05/30 00:06:47;;;;;;;9.23;2.80;;;;;;;10.78;100.00;102666.13;10376952;28;20042;-70
2023/05/30 00:11:48;;;;;;;10.43;2.83;;;;;;;10.76;100.00;102667.41;10365593;28;20124;-70
2023/05/30 00:16:49;;;;;;;11.10;2.92;;;;;;;10.78;100.00;102679.06;10373701;28;20037;-71
2023/05/30 00:21:49;;;;;;;16.58;2.95;;;;;;;10.73;100.00;102678.84;10377598;28;20038;-71
2023/05/30 00:26:50;;;;;;;9.45;2.97;;;;;;;10.65;100.00;102678.00;10377715;28;20147;-70
2023/05/30 00:31:50;;;;;;;14.88;3.25;;;;;;;10.59;100.00;102683.53;10414525;28;20396;-69
2023/05/30 00:36:51;;;;;;;9.98;2.42;;;;;;;10.59;100.00;102673.34;10406955;28;20045;-69
2023/05/30 00:41:53;;;;;;;14.48;3.30;;;;;;;10.59;100.00;102670.59;10418116;28;20046;-70
2023/05/30 00:46:53;;;;;;;9.80;2.80;;;;;;;10.56;100.00;102668.25;10417758;28;20393;-71
2023/05/30 00:51:55;;;;;;;8.40;3.15;;;;;;;10.51;100.00;102659.78;10413111;28;20048;-71
2023/05/30 00:56:56;;;;;;;7.80;2.97;;;;;;;10.52;100.00;102660.63;10415892;28;20053;-70
2023/05/30 01:01:56;;;;;;;9.68;2.80;;;;;;;10.50;100.00;102663.59;10389958;28;20046;-69
2023/05/30 01:06:57;;;;;;;10.95;3.13;;;;;;;10.45;100.00;102650.44;10376844;28;20542;-69
2023/05/30 01:12:17;;;;;;;13.07;2.97;;;;;;;10.48;100.00;102658.28;10385094;28;20128;-69
2023/05/30 01:17:36;;;;;;;8.63;3.10;;;;;;;10.45;100.00;102663.38;10376846;28;20284;-69
2023/05/30 01:22:38;;;;;;;6.95;2.80;;;;;;;10.00;100.00;102581.31;10376088;28;20068;-68
2023/05/30 01:28:01;;;;;;;9.05;2.95;;;;;;;10.53;100.00;102668.69;10356090;28;20046;-69
2023/05/30 01:33:01;;;;;;;9.68;3.15;;;;;;;10.54;100.00;102675.88;10375480;28;20205;-69
2023/05/30 01:38:02;;;;;;;10.68;2.88;;;;;;;10.50;100.00;102669.94;10370621;28;20037;-68
2023/05/30 01:43:40;;;;;;;10.73;2.22;;;;;;;10.53;100.00;102671.44;10341172;28;20038;-70
2023/05/30 01:49:11;;;;;;;12.10;2.25;;;;;;;10.48;100.00;102671.22;10413331;28;20042;-69
2023/05/30 01:54:14;;;;;;;9.05;2.72;;;;;;;10.44;100.00;102669.94;10396442;28;20038;-70
2023/05/30 01:59:15;;;;;;;8.38;2.30;;;;;;;10.49;100.00;102672.91;10409937;28;20040;-69
2023/05/30 02:04:16;;;;;;;9.48;2.85;;;;;;;10.50;100.00;102691.13;10413995;28;20038;-70
2023/05/30 02:09:17;;;;;;;11.77;2.67;;;;;;;10.50;100.00;102680.13;10391268;28;20046;-69
2023/05/30 02:14:17;;;;;;;12.85;2.58;;;;;;;10.48;100.00;102682.25;10414000;28;20041;-69
2023/05/30 02:19:18;;;;;;;8.18;2.50;;;;;;;10.45;100.00;102677.97;10414215;28;20099;-69
2023/05/30 02:24:18;;;;;;;13.90;3.33;;;;;;;10.46;100.00;102689.88;10409043;28;20038;-68
2023/05/30 02:29:19;;;;;;;7.88;2.50;;;;;;;10.43;100.00;102693.00;10414494;28;20037;-69
2023/05/30 02:34:20;;;;;;;11.10;2.60;;;;;;;10.40;100.00;102685.19;10412021;28;20050;-69
2023/05/30 02:39:20;;;;;;;11.73;3.65;;;;;;;10.40;100.00;102701.72;10411126;28;20033;-69
2023/05/30 02:44:21;;;;;;;11.65;2.80;;;;;;;10.38;100.00;102712.09;10411049;28;20044;-68
2023/05/30 02:49:21;;;;;;;9.95;3.50;;;;;;;10.37;100.00;102707.63;10404604;28;20033;-70
2023/05/30 02:54:23;;;;;;;9.80;2.33;;;;;;;10.33;100.00;102706.34;10412602;28;20082;-68
2023/05/30 02:59:23;;;;;;;10.95;3.97;;;;;;;10.26;100.00;102711.78;10406048;28;20110;-69
2023/05/30 03:04:24;;;;;;;10.80;3.65;;;;;;;10.23;100.00;102713.06;10413504;28;20034;-68
2023/05/30 03:09:24;;;;;;;14.20;2.75;;;;;;;10.29;100.00;102722.38;10411637;28;20072;-68
2023/05/30 03:14:25;;;;;;;7.65;2.60;;;;;;;10.35;100.00;102721.59;10382036;28;20048;-69
2023/05/30 03:19:27;;;;;;;12.00;2.55;;;;;;;10.42;100.00;102722.47;10409453;28;20080;-68
2023/05/30 03:24:29;;;;;;;7.13;3.05;;;;;;;10.44;100.00;102719.50;10412712;28;20038;-68
2023/05/30 03:29:29;;;;;;;9.55;2.75;;;;;;;10.52;100.00;102727.56;10406209;28;20042;-70
2023/05/30 03:34:31;;;;;;;14.88;3.38;;;;;;;10.56;100.00;102728.00;10411431;28;20409;-69
2023/05/30 03:39:31;;;;;;;8.77;3.20;;;;;;;10.55;100.00;102732.66;10421078;28;20030;-69
2023/05/30 03:44:32;;;;;;;11.80;2.53;;;;;;;10.64;100.00;102747.06;10414788;28;20072;-68
2023/05/30 03:49:32;;;;;;;17.30;2.67;;;;;;;10.66;100.00;102750.47;10419360;28;20045;-68
2023/05/30 03:54:33;;;;;;;14.23;4.20;;;;;;;10.70;100.00;102752.59;10414214;28;20132;-69
2023/05/30 03:59:35;;;;;;;11.23;3.25;;;;;;;10.75;100.00;102742.84;10412872;28;20041;-69
2023/05/30 04:04:35;;;;;;;13.05;3.85;;;;;;;10.84;100.00;102747.94;10409937;28;20063;-69
2023/05/30 04:09:37;;;;;;;10.43;2.92;;;;;;;10.92;100.00;102744.16;10410194;28;20041;-69
2023/05/30 04:14:38;;;;;;;14.57;2.95;;;;;;;10.97;100.00;102741.59;10413747;28;20038;-69
2023/05/30 04:19:38;;;;;;;9.98;2.58;;;;;;;10.88;100.00;102715.31;10417788;28;20408;-68
2023/05/30 04:24:39;;;;;;;8.75;2.80;;;;;;;11.01;100.00;102736.53;10410086;28;20041;-69
2023/05/30 04:29:41;;;;;;;8.95;2.78;;;;;;;10.95;100.00;102737.38;10416457;28;20041;-70
2023/05/30 04:34:43;;;;;;;14.10;3.40;;;;;;;11.08;100.00;102749.25;10418357;28;20041;-69
2023/05/30 04:39:44;;;;;;;10.38;2.78;;;;;;;11.02;100.00;102743.75;10416978;28;20108;-69
2023/05/30 04:44:45;;;;;;;10.25;3.08;;;;;;;11.05;100.00;102743.31;10415823;28;20463;-69
2023/05/30 04:49:45;;;;;;;8.43;2.35;;;;;;;11.08;100.00;102740.97;10422868;28;20613;-69
2023/05/30 04:54:46;;;;;;;10.52;2.97;;;;;;;11.03;100.00;102746.25;10415652;28;20044;-68
2023/05/30 04:59:46;;;;;;;15.30;2.53;;;;;;;10.99;100.00;102745.00;10416687;28;20042;-69
2023/05/30 05:04:47;;;;;;;13.45;3.78;;;;;;;11.07;100.00;102741.19;10415043;28;20049;-69
2023/05/30 05:09:47;;;;;;;14.63;2.78;;;;;;;11.07;100.00;102736.50;10395389;28;20093;-70
2023/05/30 05:14:50;;;;;;;15.15;3.17;;;;;;;10.97;100.00;102730.56;10399129;28;20064;-69
2023/05/30 05:19:50;;;;;;;9.93;2.65;;;;;;;11.00;100.00;102729.31;10371008;28;20026;-69
2023/05/30 05:24:51;;;;;;;10.90;2.60;;;;;;;11.05;100.00;102757.94;10399181;28;20044;-69
2023/05/30 05:29:52;;;;;;;8.05;2.50;;;;;;;11.11;100.00;102764.50;10407059;28;20049;-68
2023/05/30 05:34:52;;;;;;;10.25;2.50;;;;;;;11.15;100.00;102749.25;10415531;28;20049;-69
2023/05/30 05:39:52;;;;;;;5.72;2.95;;;;;;;10.85;100.00;102693.69;10415400;28;20033;-68
2023/05/30 05:44:53;;;;;;;6.05;1.80;;;;;;;11.28;100.00;102748.38;10398120;28;20107;-68
2023/05/30 05:49:53;;;;;;;5.75;2.00;;;;;;;11.38;100.00;102754.31;10397863;28;20513;-68
2023/05/30 05:54:54;;;;;;;9.68;2.42;;;;;;;11.46;100.00;102751.34;10416162;28;20597;-68
2023/05/30 05:59:54;;;;;;;6.60;2.22;;;;;;;11.52;100.00;102756.00;10414839;28;20045;-68
2023/05/30 06:04:55;;;;;;;6.93;2.53;;;;;;;11.57;100.00;102760.03;10414916;28;20072;-68
2023/05/30 06:09:55;;;;;;;3.17;1.42;;;;;;;11.59;100.00;102761.50;10413756;28;20038;-69
2023/05/30 06:14:56;;;;;;;8.10;1.85;;;;;;;11.51;100.00;102737.75;10414002;28;20064;-68
2023/05/30 06:19:56;;;;;;;6.03;1.95;;;;;;;11.29;100.00;102704.06;10413526;28;20065;-68
2023/05/30 06:24:57;;;;;;;4.95;1.95;;;;;;;11.79;100.00;102764.22;10414487;28;20033;-68
2023/05/30 06:29:57;;;;;;;7.03;2.47;;;;;;;11.78;100.00;102762.53;10414068;28;20041;-69
2023/05/30 06:34:58;;;;;;;4.30;1.55;;;;;;;11.82;100.00;102757.41;10400894;28;20049;-69
2023/05/30 06:39:58;;;;;;;5.00;2.03;;;;;;;11.81;100.00;102764.84;10372007;28;20070;-68
2023/05/30 06:44:59;;;;;;;6.10;1.50;;;;;;;11.86;100.00;102762.28;10373765;28;20602;-69
2023/05/30 06:49:59;;;;;;;7.15;1.83;;;;;;;11.87;100.00;102747.44;10373816;28;20434;-69
2023/05/30 06:55:00;;;;;;;7.47;1.98;;;;;;;11.90;100.00;102769.09;10371950;28;20066;-69
2023/05/30 07:00:00;;;;;;;7.93;2.22;;;;;;;12.02;100.00;102769.28;10379359;28;20049;-69
2023/05/30 07:05:01;;;;;;;5.00;1.75;;;;;;;12.06;100.00;102769.69;10454755;28;20041;-68
2023/05/30 07:10:01;;;;;;;5.75;1.30;;;;;;;12.05;100.00;102754.19;10452437;28;20041;-68
2023/05/30 07:15:02;;;;;;;6.50;1.52;;;;;;;12.10;100.00;102773.72;10455158;28;20052;-67
2023/05/30 07:20:07;;;;;;;7.65;1.60;;;;;;;12.11;100.00;102789.19;10436039;28;20040;-68
2023/05/30 07:25:08;;;;;;;6.85;2.03;;;;;;;12.03;100.00;102779.25;10378212;28;20076;-69
2023/05/30 07:30:08;;;;;;;5.05;2.15;;;;;;;12.04;100.00;102775.41;10413166;28;20102;-69
2023/05/30 07:35:09;;;;;;;5.90;1.40;;;;;;;12.09;100.00;102772.00;10386541;28;20037;-68
2023/05/30 07:40:09;;;;;;;8.15;2.00;;;;;;;12.24;100.00;102769.84;10391234;28;20030;-68
2023/05/30 07:45:10;;;;;;;3.67;1.38;;;;;;;12.12;100.00;102768.81;10388113;28;20158;-69
2023/05/30 07:50:10;;;;;;;4.68;1.80;;;;;;;11.95;100.00;102775.88;10389916;28;20050;-69
2023/05/30 07:55:11;;;;;;;6.68;1.70;;;;;;;12.24;100.00;102786.41;10389823;28;20037;-70
2023/05/30 08:00:15;;;;;;;9.68;1.08;;;;;;;12.64;100.00;102775.13;10386666;28;20041;-69
2023/05/30 08:05:15;;;;;;;2.70;1.00;;;;;;;12.76;100.00;102783.56;10392051;28;20042;-69
2023/05/30 08:10:16;;;;;;;3.88;1.05;;;;;;;12.94;100.00;102782.81;10391347;28;20053;-69
2023/05/30 08:15:16;;;;;;;4.10;0.80;;;;;;;12.80;100.00;102772.94;10387836;28;20647;-69
2023/05/30 08:20:17;;;;;;;1.08;0.82;;;;;;;13.23;100.00;102755.56;10376036;28;20041;-69
2023/05/30 08:25:23;;;;;;;1.60;1.25;;;;;;;13.69;100.00;102749.63;10403243;28;20057;-67
2023/05/30 08:30:24;;;;;;;3.10;0.80;;;;;;;13.60;100.00;102722.47;10413137;28;20037;-69
2023/05/30 08:35:24;;;;;;;1.27;0.80;;;;;;;13.84;100.00;102737.31;10397360;28;20038;-68
2023/05/30 08:40:25;;;;;;;0.40;0.30;;;;;;;13.50;100.00;102679.56;10399826;28;20037;-69
2023/05/30 08:45:27;;;;;;;1.85;0.80;;;;;;;13.76;100.00;102735.69;10418030;28;20120;-70
2023/05/30 08:50:28;;;;;;;2.10;0.90;;;;;;;14.07;100.00;102747.69;10395341;28;20073;-69
2023/05/30 08:55:37;;;;;;;1.77;0.73;;;;;;;14.14;100.00;102765.09;10380403;28;20065;-69
2023/05/30 09:00:38;;;;;;;1.50;0.82;;;;;;;13.76;100.00;102763.38;10396712;28;20394;-69
2023/05/30 09:05:38;;;;;;;1.50;0.80;;;;;;;13.40;100.00;102767.78;10360662;28;20037;-69
2023/05/30 09:10:48;;;;;;;1.17;0.82;;;;;;;13.31;100.00;102774.66;10359147;28;20037;-69
2023/05/30 09:15:48;;;;;;;1.77;0.80;;;;;;;13.14;100.00;102746.69;10393130;28;20034;-69
2023/05/30 09:20:48;;;;;;;1.20;0.73;;;;;;;13.19;100.00;102755.19;10397523;28;20038;-69
2023/05/30 09:25:49;;;;;;;1.30;0.90;;;;;;;13.22;100.00;102765.78;10393847;28;20038;-70
2023/05/30 09:30:57;;;;;;;0.95;0.50;;;;;;;13.16;100.00;102782.44;10394328;28;20038;-70
2023/05/30 09:35:58;;;;;;;1.05;0.40;;;;;;;13.27;100.00;102779.78;10354254;28;20498;-70
2023/05/30 09:41:02;;;;;;;0.50;0.35;;;;;;;13.54;100.00;102782.34;10352136;28;20034;-70
2023/05/30 09:46:05;;;;;;;1.02;0.50;;;;;;;13.77;100.00;102767.84;10391971;28;20053;-70
2023/05/30 09:51:06;;;;;;;3.03;0.60;;;;;;;13.76;100.00;102771.69;10396282;28;20049;-70
2023/05/30 09:56:07;;;;;;;3.53;0.50;;;;;;;13.73;100.00;102783.22;10395960;28;20566;-70
2023/05/30 10:01:14;;;;;;;1.23;0.60;;;;;;;13.39;100.00;102777.16;10392097;28;20033;-70
2023/05/30 10:06:15;;;;;;;0.88;0.60;;;;;;;13.35;100.00;102781.44;10396223;28;20037;-71
2023/05/30 10:11:15;;;;;;;2.80;0.80;;;;;;;13.25;100.00;102770.00;10414027;28;20046;-69
2023/05/30 10:16:17;;;;;;;1.88;0.82;;;;;;;13.45;100.00;102762.41;10370574;28;20034;-70
2023/05/30 10:21:17;;;;;;;1.15;0.90;;;;;;;13.63;100.00;102760.75;10316572;28;20046;-70
2023/05/30 10:26:18;;;;;;;2.53;0.70;;;;;;;14.13;100.00;102758.69;10316472;28;20045;-70
2023/05/30 10:31:18;;;;;;;1.25;0.85;;;;;;;14.52;100.00;102744.53;10346343;28;20037;-70
2023/05/30 10:36:20;;;;;;;0.90;0.70;;;;;;;15.00;100.00;102759.41;10355769;28;20049;-70
2023/05/30 10:41:29;;;;;;;2.10;1.10;;;;;;;14.93;100.00;102759.53;10355811;28;20119;-70
2023/05/30 10:46:35;;;;;;;2.30;1.00;;;;;;;15.00;100.00;102754.69;10393241;28;20041;-70
2023/05/30 10:51:57;;;;;;;1.75;0.60;;;;;;;15.06;100.00;102762.06;10375758;28;20487;-70
2023/05/30 10:56:59;;;;;;;5.68;0.98;;;;;;;15.01;100.00;102756.41;10382665;28;20049;-70
2023/05/30 11:02:04;;;;;;;1.13;0.80;;;;;;;14.88;100.00;102757.47;10378193;28;20044;-69
2023/05/30 11:07:05;;;;;;;1.38;0.70;;;;;;;15.03;100.00;102747.84;10391120;28;20049;-70
2023/05/30 11:12:06;;;;;;;3.22;1.00;;;;;;;15.22;100.00;102749.44;10389678;28;20564;-70
2023/05/30 11:17:07;;;;;;;1.30;0.73;;;;;;;15.59;100.00;102748.34;10412237;28;20104;-70
2023/05/30 11:22:13;;;;;;;1.60;0.60;;;;;;;15.67;100.00;102736.88;10411895;28;20036;-71
2023/05/30 11:27:14;;;;;;;2.08;1.17;;;;;;;15.88;100.00;102733.47;10411968;28;20053;-70
2023/05/30 11:32:18;;;;;;;1.25;0.70;;;;;;;15.88;100.00;102716.81;10413161;28;20034;-69
2023/05/30 11:37:18;;;;;;;1.17;0.50;;;;;;;15.86;100.00;102727.34;10395478;28;20040;-69
2023/05/30 11:42:18;;;;;;;0.77;0.63;;;;;;;15.91;100.00;102729.38;10411936;28;20049;-71
2023/05/30 11:47:19;;;;;;;1.73;0.50;;;;;;;15.77;100.00;102736.28;10410158;28;20033;-69
2023/05/30 11:52:20;;;;;;;1.05;0.70;;;;;;;15.85;100.00;102728.41;10412899;28;20042;-70
2023/05/30 11:57:20;;;;;;;2.35;0.65;;;;;;;15.84;100.00;102721.19;10418589;28;20045;-70
2023/05/30 12:02:25;;;;;;;4.50;0.80;;;;;;;15.75;100.00;102717.09;10419585;28;20030;-70
2023/05/30 12:07:26;;;;;;;2.67;1.00;;;;;;;15.91;100.00;102710.75;10411390;28;20524;-70
2023/05/30 12:12:27;;;;;;;1.10;0.70;;;;;;;16.18;100.00;102709.34;10398025;28;20056;-70
2023/05/30 12:17:28;;;;;;;2.00;0.98;;;;;;;16.25;100.00;102683.13;10380563;28;20037;-70
2023/05/30 12:22:30;;;;;;;1.23;0.80;;;;;;;16.37;100.00;102680.28;10380650;28;20025;-70
2023/05/30 12:27:31;;;;;;;2.28;0.93;;;;;;;16.12;100.00;102688.94;10396531;28;20105;-70
2023/05/30 12:32:31;;;;;;;2.65;0.95;;;;;;;16.45;100.00;102684.56;10368663;28;20053;-70
2023/05/30 12:37:32;;;;;;;3.38;0.70;;;;;;;16.74;100.00;102697.38;10388412;28;20532;-70
2023/05/30 12:42:33;;;;;;;1.63;0.55;;;;;;;16.55;100.00;102693.09;10402597;28;20371;-70
2023/05/30 12:47:35;;;;;;;1.02;0.50;;;;;;;16.19;100.00;102692.44;10383327;28;20541;-71
2023/05/30 12:52:35;;;;;;;2.58;1.38;;;;;;;16.63;100.00;102700.19;10375593;28;20095;-70
2023/05/30 12:57:36;;;;;;;2.05;0.57;;;;;;;16.63;100.00;102700.19;10395678;28;20072;-70
2023/05/30 13:02:36;;;;;;;2.28;0.60;;;;;;;16.48;100.00;102692.44;10374520;28;20041;-69
2023/05/30 13:07:37;;;;;;;1.30;0.57;;;;;;;16.31;100.00;102690.47;10353810;28;20050;-67
2023/05/30 13:12:38;;;;;;;1.17;0.80;;;;;;;16.15;100.00;102702.38;10376431;28;20072;-70
2023/05/30 13:17:38;;;;;;;2.15;0.75;;;;;;;16.65;100.00;102690.50;10398735;28;20093;-71
2023/05/30 13:22:39;;;;;;;1.27;0.55;;;;;;;17.35;100.00;102678.03;10395003;28;20034;-71
2023/05/30 13:27:39;;;;;;;1.40;0.50;;;;;;;17.73;100.00;102670.72;10397193;28;20091;-70
2023/05/30 13:32:39;;;;;;;1.33;0.68;;;;;;;17.19;100.00;102681.69;10397004;28;20037;-71
2023/05/30 13:37:40;;;;;;;3.22;0.70;;;;;;;16.43;100.00;102672.88;10386503;28;20041;-72
2023/05/30 13:42:41;;;;;;;1.75;0.60;;;;;;;15.85;100.00;102678.41;10412555;28;20041;-70
2023/05/30 13:47:41;;;;;;;1.50;0.80;;;;;;;15.70;100.00;102691.97;10416732;28;20037;-70
2023/05/30 13:52:41;;;;;;;2.03;0.65;;;;;;;15.74;100.00;102690.41;10416945;28;20450;-70
2023/05/30 13:57:42;;;;;;;2.63;0.63;;;;;;;15.58;100.00;102700.28;10416586;28;20104;-70
2023/05/30 14:02:42;;;;;;;1.15;0.60;;;;;;;15.36;100.00;102696.44;10416819;28;20080;-69
2023/05/30 14:07:43;;;;;;;2.90;1.23;;;;;;;15.27;100.00;102693.22;10413814;28;20045;-69
2023/05/30 14:12:47;;;;;;;4.22;1.13;;;;;;;15.31;100.00;102711.91;10414794;28;20219;-69
2023/05/30 14:17:47;;;;;;;1.02;0.68;;;;;;;15.37;100.00;102710.09;10415380;28;20034;-70
2023/05/30 14:22:48;;;;;;;1.88;0.95;;;;;;;15.47;100.00;102695.63;10416070;28;20056;-69
2023/05/30 14:27:50;;;;;;;1.30;0.68;;;;;;;15.49;100.00;102693.44;10415736;28;20497;-69
2023/05/30 14:32:51;;;;;;;0.82;0.43;;;;;;;15.65;100.00;102683.53;10420795;28;20049;-70
2023/05/30 14:37:51;;;;;;;2.17;0.70;;;;;;;15.77;100.00;102681.56;10415425;28;20388;-70
2023/05/30 14:42:52;;;;;;;1.45;0.85;;;;;;;16.00;100.00;102671.47;10394706;28;20042;-71
2023/05/30 14:47:53;;;;;;;1.40;0.73;;;;;;;15.86;100.00;102674.56;10373262;28;20045;-69
2023/05/30 14:52:54;;;;;;;1.73;0.70;;;;;;;15.67;100.00;102670.25;10373772;28;20037;-69
2023/05/30 14:57:55;;;;;;;3.47;1.13;;;;;;;15.71;100.00;102677.00;10373536;28;20046;-70
2023/05/30 15:02:55;;;;;;;0.77;0.52;;;;;;;15.89;100.00;102674.06;10373999;28;20041;-69
2023/05/30 15:07:56;;;;;;;1.70;0.80;;;;;;;16.04;100.00;102681.88;10373483;28;20049;-67
2023/05/30 15:12:56;;;;;;;3.30;1.00;;;;;;;16.08;100.00;102673.88;10383352;28;20060;-69
2023/05/30 15:17:57;;;;;;;2.08;0.90;;;;;;;15.81;100.00;102679.16;10413749;28;20037;-69
2023/05/30 15:22:57;;;;;;;5.75;0.80;;;;;;;15.80;100.00;102680.25;10413989;28;20048;-69
2023/05/30 15:27:58;;;;;;;1.98;0.60;;;;;;;15.72;100.00;102689.81;10414080;28;20038;-70
2023/05/30 15:32:58;;;;;;;2.08;0.60;;;;;;;15.49;100.00;102680.41;10399406;28;20042;-69
2023/05/30 15:37:59;;;;;;;1.52;0.65;;;;;;;15.36;100.00;102688.13;10394986;28;20053;-68
2023/05/30 15:42:59;;;;;;;1.15;0.77;;;;;;;14.97;100.00;102691.41;10378172;28;20053;-69
2023/05/30 15:48:00;;;;;;;1.77;0.90;;;;;;;14.80;100.00;102704.25;10408321;28;20048;-69
2023/05/30 15:53:00;;;;;;;2.45;0.82;;;;;;;14.88;100.00;102698.34;10415966;28;20050;-69
2023/05/30 15:58:01;;;;;;;3.22;0.98;;;;;;;15.11;100.00;102701.19;10399286;28;20045;-70
2023/05/30 16:03:01;;;;;;;2.28;1.00;;;;;;;15.02;100.00;102685.13;10396329;28;20042;-71
2023/05/30 16:08:02;;;;;;;2.47;1.17;;;;;;;14.64;100.00;102673.38;10395378;28;20071;-70
2023/05/30 16:13:03;;;;;;;3.17;1.10;;;;;;;14.62;100.00;102686.63;10380601;28;20068;-70
2023/05/30 16:18:03;;;;;;;2.08;1.00;;;;;;;14.62;100.00;102683.84;10392176;28;20138;-70
2023/05/30 16:23:04;;;;;;;2.53;0.90;;;;;;;14.66;100.00;102682.31;10355947;28;20996;-70
2023/05/30 16:28:05;;;;;;;2.05;0.88;;;;;;;14.89;100.00;102675.09;10355277;28;20053;-70
2023/05/30 16:33:05;;;;;;;2.35;0.77;;;;;;;15.17;100.00;102676.31;10393954;28;20567;-71
2023/05/30 16:38:06;;;;;;;1.92;0.90;;;;;;;15.14;100.00;102672.94;10356038;28;20034;-70
2023/05/30 16:43:07;;;;;;;1.83;0.90;;;;;;;15.09;100.00;102666.44;10348590;28;20042;-70
2023/05/30 16:48:07;;;;;;;2.30;0.95;;;;;;;15.09;100.00;102664.50;10349295;28;20168;-69
2023/05/30 16:53:08;;;;;;;1.90;1.10;;;;;;;15.28;100.00;102664.38;10351246;28;20052;-67
2023/05/30 16:58:08;;;;;;;5.43;1.20;;;;;;;15.53;100.00;102672.44;10355885;28;20463;-70
2023/05/30 17:03:09;;;;;;;3.58;1.13;;;;;;;15.36;100.00;102668.69;10355382;28;20136;-70
2023/05/30 17:08:10;;;;;;;3.67;1.70;;;;;;;15.20;100.00;102673.91;10352738;28;20513;-70
2023/05/30 17:13:11;;;;;;;1.95;1.30;;;;;;;15.28;100.00;102665.22;10352702;28;20049;-71
2023/05/30 17:18:11;;;;;;;4.32;1.45;;;;;;;15.20;100.00;102665.59;10352614;28;20049;-70
2023/05/30 17:23:13;;;;;;;2.78;1.15;;;;;;;15.23;100.00;102678.13;10352068;28;20038;-69
2023/05/30 17:28:14;;;;;;;2.65;1.45;;;;;;;15.21;100.00;102683.06;10352193;28;20239;-69
2023/05/30 17:33:15;;;;;;;2.38;1.25;;;;;;;15.03;100.00;102670.19;10343189;28;20065;-69
2023/05/30 17:38:15;;;;;;;2.13;1.20;;;;;;;15.06;100.00;102678.84;10346818;28;20532;-69
2023/05/30 17:43:16;;;;;;;3.13;1.40;;;;;;;14.88;100.00;102687.25;10352003;28;20098;-68
2023/05/30 17:48:16;;;;;;;2.85;1.60;;;;;;;14.62;100.00;102697.72;10352286;28;20121;-70
2023/05/30 17:53:17;;;;;;;3.65;1.35;;;;;;;14.50;100.00;102705.13;10332701;28;20073;-69
2023/05/30 17:58:17;;;;;;;3.40;1.00;;;;;;;14.39;100.00;102681.00;10366462;28;20141;-69
2023/05/30 18:03:18;;;;;;;3.95;1.27;;;;;;;13.88;100.00;102634.19;10349416;28;20069;-70
2023/05/30 18:08:20;;;;;;;5.00;1.67;;;;;;;14.29;100.00;102687.94;10340160;28;20101;-69
2023/05/30 18:13:21;;;;;;;2.95;1.10;;;;;;;14.36;100.00;102692.53;10349926;28;20102;-69
2023/05/30 18:18:21;;;;;;;4.18;1.38;;;;;;;14.20;100.00;102645.03;10349735;28;20053;-69
2023/05/30 18:23:22;;;;;;;3.10;1.27;;;;;;;14.40;100.00;102699.31;10350509;28;20109;-70
2023/05/30 18:28:24;;;;;;;2.65;1.50;;;;;;;14.28;100.00;102708.44;10333032;28;20102;-70
2023/05/30 18:33:25;;;;;;;3.95;1.33;;;;;;;14.04;100.00;102724.06;10366340;28;20093;-70
2023/05/30 18:38:26;;;;;;;1.67;1.10;;;;;;;13.92;100.00;102720.41;10373215;28;20041;-70
2023/05/30 18:43:26;;;;;;;4.13;1.35;;;;;;;13.92;100.00;102731.47;10385771;28;20053;-70
2023/05/30 18:48:29;;;;;;;4.72;1.17;;;;;;;13.80;100.00;102728.63;10412310;28;20040;-69
2023/05/30 18:53:30;;;;;;;4.00;1.40;;;;;;;13.77;100.00;102734.63;10436432;28;20067;-70
2023/05/30 18:58:30;;;;;;;2.58;1.15;;;;;;;13.55;100.00;102719.56;10427833;28;20057;-69
2023/05/30 19:03:31;;;;;;;4.20;1.23;;;;;;;13.19;100.00;102704.53;10455607;28;20033;-70
2023/05/30 19:08:31;;;;;;;3.05;1.17;;;;;;;13.12;100.00;102738.66;10453656;28;20041;-71
2023/05/30 19:13:32;;;;;;;2.35;1.08;;;;;;;12.93;100.00;102743.25;10426364;28;20038;-70
2023/05/30 19:18:32;;;;;;;3.67;1.80;;;;;;;12.76;100.00;102739.34;10411169;28;20033;-70
2023/05/30 19:23:33;;;;;;;5.93;1.65;;;;;;;12.59;100.00;102747.34;10412445;28;20036;-70
2023/05/30 19:28:36;;;;;;;4.20;1.88;;;;;;;12.37;100.00;102746.81;10413444;28;20045;-70
2023/05/30 19:33:37;;;;;;;5.63;2.63;;;;;;;12.16;100.00;102758.19;10423578;28;20063;-71
2023/05/30 19:38:37;;;;;;;5.90;1.70;;;;;;;11.99;100.00;102766.09;10440624;28;20029;-71
2023/05/30 19:43:38;;;;;;;2.92;1.77;;;;;;;11.80;100.00;102754.88;10450419;28;20520;-70
2023/05/30 19:48:38;;;;;;;4.32;2.35;;;;;;;11.72;100.00;102771.69;10452445;28;20048;-70
2023/05/30 19:53:39;;;;;;;5.00;2.17;;;;;;;11.48;100.00;102751.13;10451768;28;20064;-69
2023/05/30 19:58:39;;;;;;;4.25;1.70;;;;;;;11.47;100.00;102774.25;10445924;28;20060;-70
2023/05/30 20:03:40;;;;;;;4.63;1.77;;;;;;;11.30;100.00;102757.28;10439178;28;20124;-67
2023/05/30 20:08:40;;;;;;;7.25;1.92;;;;;;;11.26;100.00;102783.59;10412466;28;20048;-71
2023/05/30 20:13:41;;;;;;;5.47;2.03;;;;;;;11.17;100.00;102787.63;10410427;28;20057;-71
2023/05/30 20:18:42;;;;;;;5.28;1.75;;;;;;;11.07;100.00;102780.63;10419646;28;20041;-70
2023/05/30 20:23:42;;;;;;;4.68;1.88;;;;;;;10.98;100.00;102781.91;10428310;28;20047;-70
2023/05/30 20:28:42;;;;;;;4.65;1.88;;;;;;;10.87;100.00;102772.34;10451365;28;20033;-70
2023/05/30 20:33:43;;;;;;;4.05;1.90;;;;;;;10.80;100.00;102779.75;10461174;28;20043;-70
2023/05/30 20:38:46;;;;;;;4.00;1.90;;;;;;;10.68;100.00;102771.22;10428668;28;20050;-71
2023/05/30 20:43:50;;;;;;;3.03;1.70;;;;;;;10.55;100.00;102771.22;10425476;28;20049;-71
2023/05/30 20:48:50;;;;;;;5.07;2.33;;;;;;;10.50;100.00;102773.75;10420921;28;20045;-70
2023/05/30 20:53:51;;;;;;;3.13;1.58;;;;;;;10.37;100.00;102762.69;10416886;28;20064;-71
2023/05/30 20:58:51;;;;;;;5.95;2.15;;;;;;;10.36;100.00;102780.28;10422031;28;20056;-70
2023/05/30 21:03:52;;;;;;;4.28;1.98;;;;;;;10.30;100.00;102791.03;10418923;28;20038;-71
2023/05/30 21:08:52;;;;;;;6.18;2.20;;;;;;;10.25;100.00;102782.53;10416281;28;20046;-71
2023/05/30 21:13:53;;;;;;;4.00;2.08;;;;;;;10.20;100.00;102779.53;10416171;28;20037;-69
2023/05/30 21:18:54;;;;;;;9.70;3.35;;;;;;;10.18;100.00;102780.78;10416641;28;20116;-70
2023/05/30 21:23:54;;;;;;;8.88;2.50;;;;;;;10.13;100.00;102783.28;10419984;28;20034;-70
2023/05/30 21:28:55;;;;;;;5.20;2.40;;;;;;;10.09;100.00;102780.13;10429788;28;20041;-70
2023/05/30 21:33:58;;;;;;;5.13;2.10;;;;;;;10.12;100.00;102787.13;10445293;28;20025;-70
2023/05/30 21:38:59;;;;;;;4.55;2.30;;;;;;;10.17;100.00;102774.44;10457699;28;20101;-70
2023/05/30 21:44:00;;;;;;;6.28;2.17;;;;;;;10.15;100.00;102768.31;10457562;28;20033;-70
2023/05/30 21:49:00;;;;;;;6.90;2.03;;;;;;;10.15;100.00;102776.56;10457146;28;20493;-70
2023/05/30 21:54:02;;;;;;;9.27;2.83;;;;;;;10.14;100.00;102751.97;10456609;28;20041;-70
2023/05/30 21:59:02;;;;;;;4.65;2.03;;;;;;;10.41;100.00;102761.22;10409504;28;20052;-70
2023/05/30 22:04:07;;;;;;;5.97;2.22;;;;;;;10.55;100.00;102770.38;10437272;28;20125;-70
2023/05/30 22:09:08;;;;;;;5.28;2.33;;;;;;;10.67;100.00;102764.03;10455607;28;20428;-70
2023/05/30 22:14:08;;;;;;;4.38;2.63;;;;;;;10.80;100.00;102765.13;10455644;28;20412;-71
2023/05/30 22:19:09;;;;;;;10.40;4.50;;;;;;;10.85;100.00;102766.19;10455980;28;20033;-70
2023/05/30 22:24:10;;;;;;;5.53;2.35;;;;;;;10.97;100.00;102771.06;10441150;28;20041;-70
2023/05/30 22:29:11;;;;;;;7.57;1.90;;;;;;;11.02;100.00;102769.38;10454247;28;20033;-70
2023/05/30 22:34:11;;;;;;;4.40;2.78;;;;;;;11.10;100.00;102774.69;10440849;28;20041;-69
2023/05/30 22:39:12;;;;;;;7.28;2.72;;;;;;;11.17;100.00;102779.38;10455005;28;20054;-70
2023/05/30 22:44:13;;;;;;;9.23;2.78;;;;;;;11.16;100.00;102772.13;10453334;28;20485;-70